»·PEaware :: N107MR KSEA-CYVR

N107MR :: KSEA-CYVR

FLIGHT INFORMATION

Flight Status: Arrived
Operator: Privately registered:
United States
More flights under this callsign
Pilot: Michael R. (16974)
Aircraft: MITSUBISHI MU-2 MARQUISE
(MU2)
More flights by this aircraft type
Origin: KSEA Seattle-Tacoma Intl
United States
Destination: CYVR Vancouver Intl
Canada
More flights between these airports :: More routes between these airports
Route: SEA PAE PAINE4
File this flight plan on PilotEdge
Remarks:
Altitude:
(Current/Filed)
12,000ft
Speed:
(Current/Filed)
270kts
Departed: 26-Mar-18 03:51 PM
Arrived: 26-Mar-18 04:29 PM
Distance/Time
Traveled:
110nm/0:38
Distance/Time
To Go:
Arrived

Flight Plot

Page will automatically refresh every two minutes.

Flight plan parsing failed; only flown route is shown


Map Options




Map Legend


Flown Route
Filed Route
Departure Airport
Arrival Airport
Navaid (VOR, NDB)
Fix

Horizontal Profiles

Position Reports

Time Latitude Longitude Heading Altitude Ground
Speed
26-Mar-18 15:29 47.439010 -122.315054 55 355ft 0kts
26-Mar-18 15:30 47.439010 -122.315054 55 355ft 0kts
26-Mar-18 15:31 47.439010 -122.315054 55 355ft 0kts
26-Mar-18 15:32 47.439010 -122.315054 55 355ft 0kts
26-Mar-18 15:33 47.439010 -122.315054 55 355ft 0kts
26-Mar-18 15:34 47.439010 -122.315054 55 355ft 0kts
26-Mar-18 15:35 47.439010 -122.315054 55 355ft 0kts
26-Mar-18 15:36 47.439010 -122.315054 55 355ft 0kts
26-Mar-18 15:37 47.439010 -122.315054 55 355ft 0kts
26-Mar-18 15:38 47.439010 -122.315054 55 355ft 0kts
26-Mar-18 15:39 47.439010 -122.315054 55 355ft 0kts
26-Mar-18 15:40 47.439010 -122.315054 55 355ft 0kts
26-Mar-18 15:41 47.439010 -122.315054 55 355ft 0kts
26-Mar-18 15:42 47.439010 -122.315054 55 355ft 0kts
26-Mar-18 15:43 47.439928 -122.313665 9 360ft 18kts
26-Mar-18 15:44 47.447068 -122.313580 5 384ft 31kts
26-Mar-18 15:45 47.456814 -122.313501 0 392ft 40kts
26-Mar-18 15:46 47.463665 -122.312356 90 375ft 8kts
26-Mar-18 15:47 47.463665 -122.312287 90 375ft 0kts
26-Mar-18 15:48 47.463665 -122.312287 90 375ft 0kts
26-Mar-18 15:49 47.463061 -122.310984 179 390ft 0kts
26-Mar-18 15:50 47.439950 -122.311767 183 1336ft 134kts
26-Mar-18 15:51 47.394463 -122.307533 178 2977ft 188kts
26-Mar-18 15:52 47.351334 -122.299557 161 4596ft 199kts
26-Mar-18 15:53 47.336280 -122.216120 97 6347ft 225kts
26-Mar-18 15:54 47.328077 -122.107103 96 8536ft 225kts
26-Mar-18 15:55 47.367576 -122.077526 340 10645ft 181kts
26-Mar-18 15:56 47.417475 -122.095327 340 12009ft 211kts
26-Mar-18 15:57 47.481466 -122.118411 341 12004ft 265kts
26-Mar-18 15:58 47.542230 -122.140335 341 12001ft 283kts
26-Mar-18 15:59 47.618913 -122.168080 341 12070ft 287kts
26-Mar-18 16:00 47.695336 -122.195918 341 12038ft 276kts
26-Mar-18 16:01 47.765006 -122.221170 341 11980ft 255kts
26-Mar-18 16:02 47.835174 -122.246860 341 11979ft 266kts
26-Mar-18 16:03 47.907350 -122.273318 341 11977ft 270kts
26-Mar-18 16:04 47.981064 -122.295554 343 11976ft 271kts
26-Mar-18 16:05 48.054715 -122.316844 343 11976ft 270kts
26-Mar-18 16:06 48.125532 -122.337378 343 11998ft 270kts
26-Mar-18 16:07 48.197030 -122.358164 343 12052ft 269kts
26-Mar-18 16:08 48.270588 -122.379622 343 12036ft 271kts
26-Mar-18 16:09 48.344509 -122.401240 343 12033ft 271kts
26-Mar-18 16:10 48.418489 -122.422929 343 12033ft 271kts
26-Mar-18 16:11 48.492340 -122.444654 343 12032ft 271kts
26-Mar-18 16:12 48.566441 -122.466516 343 12032ft 271kts
26-Mar-18 16:13 48.640374 -122.488392 343 12032ft 271kts
26-Mar-18 16:14 48.712588 -122.516321 316 11994ft 261kts
26-Mar-18 16:15 48.761747 -122.596492 309 12000ft 259kts
26-Mar-18 16:16 48.807663 -122.676125 307 11824ft 265kts
26-Mar-18 16:17 48.857184 -122.762360 306 10671ft 257kts
26-Mar-18 16:18 48.899669 -122.836498 305 9650ft 217kts
26-Mar-18 16:19 48.937741 -122.903092 308 8459ft 206kts
26-Mar-18 16:20 48.996967 -122.882170 13 7077ft 240kts
26-Mar-18 16:21 49.060450 -122.850678 12 5711ft 242kts
26-Mar-18 16:22 49.123260 -122.821884 356 3940ft 255kts
26-Mar-18 16:23 49.154100 -122.892855 274 2594ft 217kts
26-Mar-18 16:24 49.163405 -122.976168 274 1362ft 162kts
26-Mar-18 16:25 49.170178 -123.034680 274 1365ft 139kts
26-Mar-18 16:26 49.177590 -123.099183 276 864ft 164kts
26-Mar-18 16:27 49.184237 -123.156457 276 75ft 112kts
26-Mar-18 16:28 49.182691 -123.169311 206 17ft 28kts
26-Mar-18 16:29 49.181829 -123.171997 188 17ft 0kts

Navigation Log

Ident Type
Flight plan parsing failed, navigation log unavailable